createdAt,value
2017-09-07T00:01:59.544Z,3.37
2017-09-07T00:04:26.999Z,5.93
2017-09-07T00:06:54.438Z,2.73
2017-09-07T00:09:21.885Z,4.73
2017-09-07T00:11:49.309Z,4.27
2017-09-07T00:14:16.767Z,6.40
2017-09-07T00:17:21.104Z,4.87
2017-09-07T00:19:49.314Z,6.60
2017-09-07T00:22:16.764Z,3.97
2017-09-07T00:24:44.204Z,9.47
2017-09-07T00:27:11.635Z,6.40
2017-09-07T00:29:39.087Z,5.23
2017-09-07T00:32:06.527Z,3.43
2017-09-07T00:34:33.976Z,4.37
2017-09-07T00:37:01.415Z,2.80
2017-09-07T00:39:28.863Z,5.47
2017-09-07T00:44:30.195Z,3.63
2017-09-07T00:46:58.409Z,3.13
2017-09-07T00:49:25.854Z,2.53
2017-09-07T00:51:53.299Z,4.83
2017-09-07T00:54:20.747Z,3.03
2017-09-07T00:56:48.191Z,3.27
2017-09-07T00:59:16.406Z,3.87
2017-09-07T01:01:43.854Z,3.97
2017-09-07T01:04:11.296Z,6.20
2017-09-07T01:06:38.735Z,2.67
2017-09-07T01:09:06.943Z,2.30
2017-09-07T01:11:34.394Z,3.23
2017-09-07T01:14:01.839Z,5.80
2017-09-07T01:16:29.283Z,2.43
2017-09-07T01:18:57.491Z,3.17
2017-09-07T01:21:24.934Z,3.47
2017-09-07T01:23:52.379Z,7.07
2017-09-07T01:26:19.827Z,6.43
2017-09-07T01:28:47.263Z,3.87
2017-09-07T01:31:14.711Z,3.90
2017-09-07T01:33:42.915Z,4.07
2017-09-07T01:36:10.363Z,2.30
2017-09-07T01:38:37.795Z,3.77
2017-09-07T01:41:05.240Z,3.50
2017-09-07T01:43:32.679Z,5.07
2017-09-07T01:46:00.122Z,3.87
2017-09-07T01:48:39.960Z,3.60
2017-09-07T01:51:07.415Z,5.20
2017-09-07T01:53:34.860Z,2.70
2017-09-07T01:56:02.298Z,3.63
2017-09-07T01:58:30.514Z,3.30
2017-09-07T02:00:57.959Z,5.40
2017-09-07T02:03:25.399Z,3.77
2017-09-07T02:05:52.842Z,2.90
2017-09-07T02:08:21.047Z,3.00
2017-09-07T02:10:48.519Z,2.90
2017-09-07T02:13:15.954Z,5.37
2017-09-07T02:15:43.392Z,2.40
2017-09-07T02:18:10.835Z,5.30
2017-09-07T02:20:39.039Z,6.80
2017-09-07T02:23:06.489Z,3.90
2017-09-07T02:25:33.936Z,3.37
2017-09-07T02:28:01.384Z,2.47
2017-09-07T02:30:28.822Z,3.20
2017-09-07T02:32:57.038Z,3.63
2017-09-07T02:35:24.482Z,3.37
2017-09-07T02:37:51.931Z,3.83
2017-09-07T02:40:19.371Z,6.80
2017-09-07T02:42:46.816Z,2.90
2017-09-07T02:45:15.024Z,2.83
2017-09-07T02:47:42.455Z,4.30
2017-09-07T02:50:10.667Z,3.90
2017-09-07T02:52:38.110Z,3.60
2017-09-07T02:55:05.556Z,3.77
2017-09-07T02:57:32.997Z,6.03
2017-09-07T03:00:01.210Z,5.70
2017-09-07T03:02:28.646Z,3.70
2017-09-07T03:04:56.087Z,6.00
2017-09-07T03:07:24.295Z,3.90
2017-09-07T03:09:51.751Z,5.80
2017-09-07T03:12:19.191Z,4.30
2017-09-07T03:14:46.653Z,3.40
2017-09-07T03:17:14.835Z,3.47
2017-09-07T03:19:42.276Z,3.00
2017-09-07T03:22:09.711Z,3.70
2017-09-07T03:24:37.939Z,5.10
2017-09-07T03:27:05.380Z,3.97
2017-09-07T03:29:32.827Z,7.47
2017-09-07T03:32:00.305Z,7.20
2017-09-07T03:34:27.710Z,3.77
2017-09-07T03:36:55.931Z,3.30
2017-09-07T03:39:23.374Z,5.37
2017-09-07T03:41:50.826Z,3.60
2017-09-07T03:44:18.258Z,6.83
2017-09-07T03:46:45.702Z,4.57
2017-09-07T03:49:13.919Z,7.40
2017-09-07T03:51:41.371Z,3.23
2017-09-07T03:54:08.807Z,3.97
2017-09-07T03:56:36.247Z,4.53
2017-09-07T03:59:04.453Z,3.03
2017-09-07T04:01:31.920Z,5.30
2017-09-07T04:03:59.365Z,5.60
2017-09-07T04:06:26.800Z,7.13
2017-09-07T04:08:55.010Z,4.90
2017-09-07T04:11:22.455Z,6.53
2017-09-07T04:13:49.907Z,7.07
2017-09-07T04:16:17.342Z,4.80
2017-09-07T04:18:45.555Z,7.17
2017-09-07T04:21:12.998Z,7.30
2017-09-07T04:23:40.455Z,5.40
2017-09-07T04:26:07.896Z,7.20
2017-09-07T04:28:35.334Z,6.23
2017-09-07T04:31:02.780Z,3.73
2017-09-07T04:33:31.003Z,6.87
2017-09-07T04:35:58.439Z,5.03
2017-09-07T04:38:25.887Z,5.10
2017-09-07T04:40:53.323Z,3.43
2017-09-07T04:43:21.541Z,4.67
2017-09-07T04:45:48.984Z,3.77
2017-09-07T04:48:16.415Z,5.73
2017-09-07T04:50:44.627Z,6.20
2017-09-07T04:53:12.067Z,5.97
2017-09-07T04:55:39.515Z,7.80
2017-09-07T04:58:06.955Z,5.13
2017-09-07T05:00:35.172Z,5.17
2017-09-07T05:03:02.617Z,9.07
2017-09-07T05:05:30.055Z,4.90
2017-09-07T05:07:57.495Z,6.33
2017-09-07T05:10:25.708Z,7.93
2017-09-07T05:12:53.146Z,7.03
2017-09-07T05:15:20.600Z,8.40
2017-09-07T05:17:48.062Z,7.10
2017-09-07T05:20:15.534Z,6.60
2017-09-07T05:22:43.183Z,6.70
2017-09-07T05:25:10.619Z,8.00
2017-09-07T05:27:39.268Z,7.10
2017-09-07T05:30:06.717Z,7.00
2017-09-07T05:32:34.178Z,8.30
2017-09-07T05:35:01.624Z,7.30
2017-09-07T05:37:29.070Z,4.30
2017-09-07T05:39:56.515Z,6.27
2017-09-07T05:42:23.971Z,7.37
2017-09-07T05:44:51.410Z,9.40
2017-09-07T05:47:18.859Z,11.80
2017-09-07T05:49:47.072Z,8.33
2017-09-07T05:52:14.522Z,6.77
2017-09-07T05:54:41.972Z,7.63
2017-09-07T05:57:09.424Z,5.17
2017-09-07T05:59:36.863Z,7.20
2017-09-07T06:02:04.316Z,10.63
2017-09-07T06:04:32.527Z,6.73
2017-09-07T06:07:00.978Z,5.20
2017-09-07T06:09:28.414Z,9.40
2017-09-07T06:11:56.619Z,6.33
2017-09-07T06:14:24.070Z,9.53
2017-09-07T06:16:51.507Z,7.30
2017-09-07T06:19:18.959Z,4.13
2017-09-07T06:21:47.162Z,6.63
2017-09-07T06:24:14.623Z,7.10
2017-09-07T06:26:42.076Z,8.13
2017-09-07T06:29:09.538Z,7.00
2017-09-07T06:31:37.001Z,7.00
2017-09-07T06:34:04.419Z,6.43
2017-09-07T06:36:32.632Z,5.87
2017-09-07T06:39:00.076Z,9.97
2017-09-07T06:41:27.529Z,6.77
2017-09-07T06:43:54.964Z,6.97
2017-09-07T06:46:22.417Z,11.70
2017-09-07T06:48:50.633Z,8.40
2017-09-07T06:51:18.091Z,10.47
2017-09-07T06:53:45.546Z,9.77
2017-09-07T06:56:12.987Z,10.13
2017-09-07T06:58:40.448Z,15.83
2017-09-07T07:01:07.894Z,9.87
2017-09-07T07:03:35.351Z,13.60
2017-09-07T07:06:02.834Z,11.93
2017-09-07T07:08:30.279Z,8.27
2017-09-07T07:10:57.724Z,7.43
2017-09-07T07:13:25.186Z,13.07
2017-09-07T07:15:52.639Z,13.87
2017-09-07T07:18:20.127Z,11.80
2017-09-07T07:20:47.550Z,14.87
2017-09-07T07:23:15.003Z,15.23
2017-09-07T07:25:42.457Z,12.97
2017-09-07T07:28:09.915Z,11.00
2017-09-07T07:30:37.359Z,13.77
2017-09-07T07:33:04.807Z,16.10
2017-09-07T07:35:32.252Z,12.40
2017-09-07T07:37:59.700Z,13.43
2017-09-07T07:40:27.927Z,14.90
2017-09-07T07:42:55.380Z,15.30
2017-09-07T07:45:22.840Z,17.90
2017-09-07T07:47:50.284Z,18.23
2017-09-07T07:50:17.740Z,18.13
2017-09-07T07:52:45.181Z,15.33
2017-09-07T07:55:12.635Z,20.67
2017-09-07T07:57:40.084Z,15.10
2017-09-07T08:00:07.540Z,17.00
2017-09-07T08:02:34.979Z,12.47
2017-09-07T08:05:03.198Z,16.70
2017-09-07T08:07:30.640Z,14.27
2017-09-07T08:09:58.107Z,23.80
2017-09-07T08:12:25.550Z,21.07
2017-09-07T08:14:52.996Z,15.10
2017-09-07T08:17:20.441Z,16.03
2017-09-07T08:19:47.888Z,15.43
2017-09-07T08:22:16.102Z,12.33
2017-09-07T08:24:43.552Z,18.77
2017-09-07T08:27:10.994Z,15.70
2017-09-07T08:29:38.435Z,17.00
2017-09-07T08:32:06.655Z,14.17
2017-09-07T08:34:34.104Z,10.47
2017-09-07T08:37:01.561Z,12.40
2017-09-07T08:39:28.999Z,19.77
2017-09-07T08:41:56.452Z,16.63
2017-09-07T08:44:23.889Z,19.83
2017-09-07T08:46:52.110Z,16.03
2017-09-07T08:49:19.657Z,15.67
2017-09-07T08:51:47.095Z,14.70
2017-09-07T08:54:14.538Z,13.70
2017-09-07T08:56:41.990Z,16.63
2017-09-07T08:59:10.204Z,17.07
2017-09-07T09:01:37.678Z,19.40
2017-09-07T09:04:05.127Z,12.00
2017-09-07T09:06:32.572Z,11.93
2017-09-07T09:09:00.024Z,17.53
2017-09-07T09:11:27.467Z,17.03
2017-09-07T09:13:54.920Z,17.70
2017-09-07T09:16:22.355Z,17.37
2017-09-07T09:18:50.572Z,21.70
2017-09-07T09:21:18.029Z,17.53
2017-09-07T09:23:45.479Z,15.00
2017-09-07T09:26:12.942Z,14.63
2017-09-07T09:28:40.927Z,15.03
2017-09-07T09:31:08.375Z,15.60
2017-09-07T09:33:35.844Z,15.60
2017-09-07T09:36:03.287Z,14.47
2017-09-07T09:38:30.755Z,13.23
2017-09-07T09:40:58.213Z,17.13
2017-09-07T09:43:25.671Z,15.17
2017-09-07T09:45:53.132Z,15.50
2017-09-07T09:48:20.587Z,9.53
2017-09-07T09:50:48.044Z,14.67
2017-09-07T09:53:15.491Z,16.07
2017-09-07T09:55:42.938Z,11.67
2017-09-07T09:58:10.391Z,13.50
2017-09-07T10:00:37.849Z,15.63
2017-09-07T10:03:05.293Z,16.17
2017-09-07T10:05:32.747Z,12.97
2017-09-07T10:08:00.191Z,15.57
2017-09-07T10:10:27.640Z,14.07
2017-09-07T10:12:55.087Z,12.53
2017-09-07T10:15:22.540Z,9.70
2017-09-07T10:17:49.985Z,11.00
2017-09-07T10:20:17.432Z,13.33
2017-09-07T10:22:44.879Z,15.27
2017-09-07T10:25:12.347Z,12.70
2017-09-07T10:27:40.574Z,16.27
2017-09-07T10:30:08.027Z,13.57
2017-09-07T10:32:35.484Z,16.80
2017-09-07T10:35:02.940Z,15.63
2017-09-07T10:37:30.396Z,19.33
2017-09-07T10:39:57.853Z,19.90
2017-09-07T10:42:25.307Z,20.60
2017-09-07T10:44:52.765Z,16.73
2017-09-07T10:47:20.223Z,21.57
2017-09-07T10:49:47.679Z,20.03
2017-09-07T10:52:15.136Z,25.83
2017-09-07T10:54:42.588Z,19.60
2017-09-07T10:57:10.047Z,15.30
2017-09-07T10:59:37.518Z,16.67
2017-09-07T11:02:04.949Z,20.40
2017-09-07T11:04:32.395Z,14.53
2017-09-07T11:07:00.610Z,15.97
2017-09-07T11:09:28.048Z,17.43
2017-09-07T11:11:55.527Z,12.67
2017-09-07T11:14:22.970Z,18.23
2017-09-07T11:16:50.410Z,20.53
2017-09-07T11:19:17.871Z,20.17
2017-09-07T11:21:45.312Z,13.60
2017-09-07T11:24:12.759Z,16.30
2017-09-07T11:26:40.204Z,13.07
2017-09-07T11:29:08.423Z,18.37
2017-09-07T11:31:35.869Z,13.00
2017-09-07T11:34:03.323Z,15.00
2017-09-07T11:36:30.780Z,12.37
2017-09-07T11:38:58.236Z,14.97
2017-09-07T11:41:25.692Z,12.60
2017-09-07T11:43:53.148Z,19.50
2017-09-07T11:46:20.607Z,20.93
2017-09-07T11:48:48.074Z,14.67
2017-09-07T11:51:15.520Z,12.20
2017-09-07T11:53:42.971Z,13.60
2017-09-07T11:56:10.431Z,15.60
2017-09-07T11:58:37.871Z,15.40
2017-09-07T12:01:05.315Z,14.57
2017-09-07T12:03:33.526Z,11.80
2017-09-07T12:06:00.974Z,13.50
2017-09-07T12:08:28.420Z,16.27
2017-09-07T12:10:55.883Z,14.97
2017-09-07T12:13:23.333Z,14.53
2017-09-07T12:15:50.780Z,13.67
2017-09-07T12:18:18.223Z,15.87
2017-09-07T12:20:45.674Z,12.33
2017-09-07T12:23:13.880Z,12.97
2017-09-07T12:25:41.337Z,13.93
2017-09-07T12:28:08.796Z,10.53
2017-09-07T12:30:36.257Z,15.57
2017-09-07T12:33:03.706Z,10.63
2017-09-07T12:35:31.180Z,11.40
2017-09-07T12:37:58.619Z,14.73
2017-09-07T12:40:26.076Z,13.93
2017-09-07T12:42:53.536Z,14.20
2017-09-07T12:45:20.981Z,10.00
2017-09-07T12:47:48.437Z,12.00
2017-09-07T12:50:15.878Z,17.07
2017-09-07T12:52:43.333Z,15.90
2017-09-07T12:55:10.770Z,17.23
2017-09-07T12:57:38.999Z,10.67
2017-09-07T13:00:06.444Z,11.80
2017-09-07T13:02:33.899Z,9.37
2017-09-07T13:05:01.339Z,10.00
2017-09-07T13:07:28.796Z,16.37
2017-09-07T13:09:56.239Z,12.30
2017-09-07T13:12:23.687Z,12.97
2017-09-07T13:14:51.130Z,12.13
2017-09-07T13:17:19.366Z,11.07
2017-09-07T13:19:46.807Z,12.40
2017-09-07T13:22:14.258Z,13.47
2017-09-07T13:24:41.718Z,11.60
2017-09-07T13:27:09.171Z,10.87
2017-09-07T13:29:36.626Z,14.23
2017-09-07T13:32:04.066Z,12.23
2017-09-07T13:34:32.274Z,12.07
2017-09-07T13:36:59.720Z,11.27
2017-09-07T13:39:27.176Z,17.63
2017-09-07T13:41:54.629Z,12.47
2017-09-07T13:44:22.081Z,10.07
2017-09-07T13:46:49.515Z,10.17
2017-09-07T13:49:17.744Z,9.87
2017-09-07T13:51:45.186Z,13.80
2017-09-07T13:54:12.637Z,8.90
2017-09-07T13:56:40.086Z,14.77
2017-09-07T13:59:07.561Z,9.40
2017-09-07T14:01:34.999Z,8.60
2017-09-07T14:04:02.440Z,15.20
2017-09-07T14:06:29.887Z,12.57
2017-09-07T14:08:57.327Z,12.87
2017-09-07T14:11:25.543Z,10.43
2017-09-07T14:13:52.994Z,8.73
2017-09-07T14:16:20.457Z,9.93
2017-09-07T14:18:47.908Z,10.30
2017-09-07T14:21:15.367Z,12.17
2017-09-07T14:23:42.807Z,7.00
2017-09-07T14:26:10.251Z,8.97
2017-09-07T14:28:37.713Z,10.40
2017-09-07T14:31:05.168Z,11.43
2017-09-07T14:33:33.385Z,7.13
2017-09-07T14:36:00.836Z,10.00
2017-09-07T14:38:28.274Z,11.33
2017-09-07T14:40:55.736Z,10.93
2017-09-07T14:43:23.187Z,11.03
2017-09-07T14:45:50.655Z,9.47
2017-09-07T14:48:18.099Z,17.20
2017-09-07T14:50:45.550Z,8.43
2017-09-07T14:53:12.987Z,10.83
2017-09-07T14:55:40.428Z,13.90
2017-09-07T14:58:08.642Z,10.93
2017-09-07T15:00:36.097Z,9.50
2017-09-07T15:03:03.556Z,13.20
2017-09-07T15:05:30.999Z,10.63
2017-09-07T15:07:58.456Z,13.10
2017-09-07T15:10:25.887Z,7.80
2017-09-07T15:12:54.112Z,11.53
2017-09-07T15:15:21.557Z,10.10
2017-09-07T15:17:49.011Z,12.30
2017-09-07T15:20:16.463Z,13.60
2017-09-07T15:22:43.923Z,10.40
2017-09-07T15:25:11.364Z,12.70
2017-09-07T15:27:38.808Z,9.90
2017-09-07T15:30:06.261Z,11.80
2017-09-07T15:32:34.834Z,13.40
2017-09-07T15:35:03.151Z,8.73
2017-09-07T15:37:30.603Z,11.40
2017-09-07T15:39:58.062Z,15.10
2017-09-07T15:42:25.502Z,8.20
2017-09-07T15:44:52.951Z,9.60
2017-09-07T15:47:20.399Z,17.80
2017-09-07T15:49:47.850Z,10.47
2017-09-07T15:52:16.060Z,9.90
2017-09-07T15:54:43.520Z,10.00
2017-09-07T15:57:10.967Z,10.43
2017-09-07T15:59:38.414Z,13.00
2017-09-07T16:02:05.856Z,14.93
2017-09-07T16:04:34.067Z,14.60
2017-09-07T16:07:01.516Z,12.77
2017-09-07T16:09:28.978Z,17.43
2017-09-07T16:11:56.424Z,9.43
2017-09-07T16:14:23.868Z,9.37
2017-09-07T16:16:51.327Z,9.50
2017-09-07T16:19:18.767Z,12.00
2017-09-07T16:21:46.979Z,10.40
2017-09-07T16:24:14.424Z,11.60
2017-09-07T16:26:41.879Z,10.07
2017-09-07T16:29:09.323Z,11.67
2017-09-07T16:31:36.779Z,14.90
2017-09-07T16:34:04.223Z,10.50
2017-09-07T16:36:32.444Z,10.80
2017-09-07T16:38:59.891Z,11.83
2017-09-07T16:41:27.348Z,9.07
2017-09-07T16:43:54.791Z,13.53
2017-09-07T16:46:22.259Z,9.10
2017-09-07T16:48:49.703Z,13.67
2017-09-07T16:51:17.155Z,11.00
2017-09-07T16:53:44.608Z,9.90
2017-09-07T16:56:12.043Z,13.20
2017-09-07T16:58:40.794Z,7.17
2017-09-07T17:01:08.247Z,10.53
2017-09-07T17:03:35.690Z,15.67
2017-09-07T17:06:03.139Z,12.23
2017-09-07T17:08:30.595Z,13.63
2017-09-07T17:10:58.038Z,15.47
2017-09-07T17:13:25.496Z,11.33
2017-09-07T17:15:52.935Z,6.23
2017-09-07T17:18:20.408Z,13.17
2017-09-07T17:20:47.861Z,10.10
2017-09-07T17:23:15.296Z,10.13
2017-09-07T17:25:43.506Z,15.37
2017-09-07T17:28:10.962Z,10.17
2017-09-07T17:30:38.428Z,17.30
2017-09-07T17:33:05.864Z,9.53
2017-09-07T17:35:33.320Z,14.43
2017-09-07T17:38:00.759Z,14.47
2017-09-07T17:40:28.206Z,12.23
2017-09-07T17:42:55.653Z,12.07
2017-09-07T17:45:23.914Z,12.03
2017-09-07T17:47:52.135Z,19.30
2017-09-07T17:50:19.659Z,13.90
2017-09-07T17:52:47.867Z,12.90
2017-09-07T17:55:15.321Z,15.43
2017-09-07T17:57:42.778Z,14.43
2017-09-07T18:00:10.207Z,13.27
2017-09-07T18:02:37.659Z,12.30
2017-09-07T18:05:05.872Z,10.23
2017-09-07T18:07:33.319Z,17.33
2017-09-07T18:10:00.811Z,17.63
2017-09-07T18:12:28.263Z,13.40
2017-09-07T18:14:55.759Z,12.67
2017-09-07T18:17:23.969Z,9.53
2017-09-07T18:19:51.454Z,9.43
2017-09-07T18:22:18.946Z,10.20
2017-09-07T18:24:47.198Z,10.03
2017-09-07T18:27:14.630Z,9.87
2017-09-07T18:29:42.130Z,9.40
2017-09-07T18:32:10.345Z,15.70
2017-09-07T18:34:37.834Z,9.23
2017-09-07T18:37:05.335Z,10.70
2017-09-07T18:39:32.827Z,8.37
2017-09-07T18:42:00.278Z,11.33
2017-09-07T18:44:27.770Z,14.00
2017-09-07T18:46:55.204Z,7.20
2017-09-07T18:49:22.651Z,8.70
2017-09-07T18:51:50.091Z,8.07
2017-09-07T18:54:17.551Z,11.60
2017-09-07T18:56:45.005Z,13.40
2017-09-07T18:59:12.461Z,12.13
2017-09-07T19:01:39.888Z,9.90
2017-09-07T19:04:07.343Z,10.53
2017-09-07T19:06:34.783Z,9.50
2017-09-07T19:09:02.269Z,7.60
2017-09-07T19:11:30.508Z,6.30
2017-09-07T19:13:57.939Z,8.50
2017-09-07T19:16:25.387Z,10.60
2017-09-07T19:18:52.831Z,7.33
2017-09-07T19:21:20.279Z,8.60
2017-09-07T19:23:47.714Z,9.63
2017-09-07T19:26:15.987Z,13.00
2017-09-07T19:28:44.194Z,9.33
2017-09-07T19:31:11.648Z,7.33
2017-09-07T19:33:39.101Z,10.20
2017-09-07T19:36:06.543Z,9.00
2017-09-07T19:38:33.980Z,9.57
2017-09-07T19:41:02.199Z,5.70
2017-09-07T19:43:29.695Z,12.07
2017-09-07T19:45:57.137Z,8.50
2017-09-07T19:48:24.617Z,8.90
2017-09-07T19:50:52.063Z,15.60
2017-09-07T19:53:19.503Z,10.83
2017-09-07T19:55:47.028Z,16.67
2017-09-07T19:58:14.464Z,11.13
2017-09-07T20:00:41.903Z,11.27
2017-09-07T20:03:10.113Z,8.37
2017-09-07T20:05:37.550Z,9.63
2017-09-07T20:08:05.013Z,10.70
2017-09-07T20:10:32.459Z,11.50
2017-09-07T20:12:59.903Z,9.27
2017-09-07T20:15:27.345Z,6.93
2017-09-07T20:17:55.556Z,8.47
2017-09-07T20:20:22.991Z,10.90
2017-09-07T20:22:51.210Z,11.63
2017-09-07T20:25:18.655Z,12.60
2017-09-07T20:27:46.144Z,9.30
2017-09-07T20:30:13.575Z,8.70
2017-09-07T20:32:41.020Z,8.40
2017-09-07T20:35:08.477Z,8.30
2017-09-07T20:37:35.927Z,13.50
2017-09-07T20:40:03.376Z,12.27
2017-09-07T20:42:30.812Z,10.83
2017-09-07T20:44:59.036Z,10.70
2017-09-07T20:47:27.243Z,11.90
2017-09-07T20:49:54.682Z,8.23
2017-09-07T20:52:22.132Z,10.63
2017-09-07T20:54:49.583Z,12.43
2017-09-07T20:57:17.028Z,9.40
2017-09-07T20:59:44.491Z,8.70
2017-09-07T21:02:11.924Z,8.63
2017-09-07T21:04:39.381Z,11.53
2017-09-07T21:07:06.820Z,11.47
2017-09-07T21:09:34.266Z,10.37
2017-09-07T21:12:02.466Z,9.40
2017-09-07T21:14:29.923Z,6.73
2017-09-07T21:16:57.359Z,13.87
2017-09-07T21:19:25.580Z,15.30
2017-09-07T21:21:53.214Z,10.17
2017-09-07T21:24:20.675Z,9.30
2017-09-07T21:26:48.125Z,10.97
2017-09-07T21:29:15.551Z,7.10
2017-09-07T21:31:43.763Z,9.40
2017-09-07T21:34:11.203Z,10.10
2017-09-07T21:36:38.647Z,7.83
2017-09-07T21:39:07.304Z,12.00
2017-09-07T21:41:34.788Z,10.70
2017-09-07T21:44:02.227Z,10.63
2017-09-07T21:46:30.442Z,10.83
2017-09-07T21:48:57.887Z,10.37
2017-09-07T21:51:25.342Z,14.73
2017-09-07T21:53:52.791Z,9.07
2017-09-07T21:56:20.235Z,5.43
2017-09-07T21:58:47.687Z,10.07
2017-09-07T22:01:15.904Z,9.03
2017-09-07T22:03:43.356Z,12.17
2017-09-07T22:06:11.331Z,7.30
2017-09-07T22:08:39.073Z,9.13
2017-09-07T22:11:06.523Z,14.70
2017-09-07T22:13:33.967Z,5.97
2017-09-07T22:16:01.416Z,13.03
2017-09-07T22:18:28.859Z,9.03
2017-09-07T22:20:56.304Z,7.87
2017-09-07T22:23:23.756Z,11.43
2017-09-07T22:25:51.199Z,14.40
2017-09-07T22:28:18.647Z,9.03
2017-09-07T22:30:46.088Z,8.20
2017-09-07T22:33:13.546Z,7.60
2017-09-07T22:35:41.793Z,11.43
2017-09-07T22:38:10.015Z,9.00
2017-09-07T22:40:37.464Z,4.60
2017-09-07T22:43:04.906Z,9.30
2017-09-07T22:45:32.364Z,11.70
2017-09-07T22:47:59.998Z,6.97
2017-09-07T22:50:27.427Z,9.90
2017-09-07T22:52:55.627Z,5.70
2017-09-07T22:55:23.071Z,6.67
2017-09-07T22:57:51.292Z,5.50
2017-09-07T23:00:18.748Z,6.37
2017-09-07T23:02:46.183Z,10.93
2017-09-07T23:05:13.652Z,9.40
2017-09-07T23:07:41.095Z,6.40
2017-09-07T23:10:08.664Z,9.23
2017-09-07T23:12:36.103Z,7.47
2017-09-07T23:15:03.551Z,7.13
2017-09-07T23:17:31.750Z,6.43
2017-09-07T23:19:59.219Z,5.20
2017-09-07T23:22:26.667Z,12.03
2017-09-07T23:24:54.113Z,6.70
2017-09-07T23:27:21.579Z,10.53
2017-09-07T23:29:49.020Z,7.80
2017-09-07T23:32:16.461Z,9.43
2017-09-07T23:34:44.664Z,9.20
2017-09-07T23:37:12.557Z,5.40
2017-09-07T23:39:40.430Z,7.10
2017-09-07T23:42:09.945Z,7.43
2017-09-07T23:44:37.387Z,7.07
2017-09-07T23:47:04.839Z,8.07
2017-09-07T23:49:32.279Z,11.37
2017-09-07T23:51:59.722Z,6.70
2017-09-07T23:54:27.179Z,5.70
2017-09-07T23:56:54.619Z,8.33
2017-09-07T23:59:22.054Z,6.53
